Time;durP1;ratioP1;P1;durP2;ratioP2;P2;SDS_P1;SDS_P2;PMS_P1;PMS_P2;Temp;Humidity;BMP_temperature;BMP_pressure;BME280_temperature;BME280_humidity;BME280_pressure;Samples;Min_cycle;Max_cycle;Signal;HPM_P1;HPM_P2
2023/06/15 00:01:01;;;;;;;5.60;2.75;;;;;;;20.72;48.59;101692.00;5035354;28;20049;-63
2023/06/15 00:03:29;;;;;;;11.75;3.33;;;;;;;20.74;48.62;101700.81;5027938;28;20064;-65
2023/06/15 00:05:57;;;;;;;8.43;3.30;;;;;;;20.77;48.48;101694.66;5029843;28;20061;-64
2023/06/15 00:08:25;;;;;;;6.93;3.00;;;;;;;20.70;48.64;101699.81;5051896;28;20414;-64
2023/06/15 00:10:52;;;;;;;6.40;2.85;;;;;;;20.67;48.94;101702.41;5018360;28;20038;-65
2023/06/15 00:13:20;;;;;;;5.15;2.90;;;;;;;20.63;49.03;101703.00;5018239;28;20157;-64
2023/06/15 00:15:48;;;;;;;4.93;2.85;;;;;;;20.64;49.07;101701.91;5028039;28;20124;-65
2023/06/15 00:18:17;;;;;;;7.85;3.20;;;;;;;20.59;49.04;101692.91;5032898;28;20045;-64
2023/06/15 00:20:45;;;;;;;7.68;2.97;;;;;;;20.48;49.49;101694.25;5035073;28;20540;-64
2023/06/15 00:23:13;;;;;;;5.20;2.85;;;;;;;20.41;49.61;101697.44;5034143;28;20053;-65
2023/06/15 00:25:40;;;;;;;6.28;3.20;;;;;;;20.36;49.76;101692.84;5015114;28;20601;-64
2023/06/15 00:28:08;;;;;;;8.25;3.10;;;;;;;20.37;49.76;101694.50;5019532;28;20541;-64
2023/06/15 00:30:36;;;;;;;9.20;3.03;;;;;;;20.38;49.59;101696.13;5032986;28;20080;-64
2023/06/15 00:33:05;;;;;;;8.65;3.22;;;;;;;20.36;49.97;101698.38;5032206;28;20421;-66
2023/06/15 00:35:33;;;;;;;6.43;2.65;;;;;;;20.34;49.90;101700.66;5034725;28;20053;-64
2023/06/15 00:38:02;;;;;;;4.15;2.75;;;;;;;20.32;49.99;101700.13;5017422;28;20049;-63
2023/06/15 00:40:30;;;;;;;6.57;2.72;;;;;;;20.37;49.79;101713.88;5032890;28;20049;-62
2023/06/15 00:42:58;;;;;;;6.40;3.00;;;;;;;20.41;49.53;101709.34;5025639;28;20067;-63
2023/06/15 00:45:25;;;;;;;8.45;3.58;;;;;;;20.43;49.93;101709.84;5014784;28;20077;-64
2023/06/15 00:47:54;;;;;;;8.55;3.30;;;;;;;20.45;49.67;101711.50;5014595;28;20565;-66
2023/06/15 00:50:22;;;;;;;7.07;3.28;;;;;;;20.40;49.67;101704.94;5001028;28;20128;-64
2023/06/15 00:52:51;;;;;;;6.78;3.10;;;;;;;20.38;49.77;101711.94;5014165;28;20107;-65
2023/06/15 00:55:24;;;;;;;5.80;3.03;;;;;;;20.30;49.93;101715.41;5016100;28;20060;-65
2023/06/15 00:57:52;;;;;;;6.82;3.25;;;;;;;20.26;50.10;101719.97;5049670;28;20081;-66
2023/06/15 01:00:20;;;;;;;4.40;2.90;;;;;;;20.23;50.36;101710.34;5034027;28;20512;-63
2023/06/15 01:02:48;;;;;;;7.57;3.35;;;;;;;20.27;50.34;101710.50;5032526;28;20115;-64
2023/06/15 01:05:18;;;;;;;7.18;3.08;;;;;;;20.26;50.27;101720.78;5034253;28;20084;-64
2023/06/15 01:07:48;;;;;;;7.70;3.05;;;;;;;20.21;50.50;101707.06;5033107;28;20052;-63
2023/06/15 01:10:18;;;;;;;6.53;3.15;;;;;;;20.17;50.46;101717.09;5044494;28;20037;-66
2023/06/15 01:12:50;;;;;;;5.50;3.00;;;;;;;20.10;50.91;101713.94;5013877;28;20085;-64
2023/06/15 01:15:19;;;;;;;8.82;3.35;;;;;;;19.96;51.26;101723.09;5003219;28;20068;-64
2023/06/15 01:17:53;;;;;;;4.90;3.00;;;;;;;19.82;51.72;101710.41;5032852;28;20501;-64
2023/06/15 01:20:30;;;;;;;4.00;2.97;;;;;;;19.82;51.64;101713.16;5016761;28;20471;-64
2023/06/15 01:23:27;;;;;;;4.90;3.20;;;;;;;19.90;51.31;101707.72;5015437;28;20581;-63
2023/06/15 01:26:09;;;;;;;5.57;2.90;;;;;;;19.93;51.23;101712.63;5034126;28;20056;-65
2023/06/15 01:28:40;;;;;;;5.57;3.20;;;;;;;19.87;51.69;101711.13;5016883;28;20136;-64
2023/06/15 01:31:10;;;;;;;4.90;3.05;;;;;;;19.75;51.78;101711.66;5016658;28;20046;-64
2023/06/15 01:33:45;;;;;;;9.70;3.58;;;;;;;19.72;52.17;101723.34;5063673;28;20041;-65
2023/06/15 01:36:14;;;;;;;8.43;3.42;;;;;;;19.64;52.59;101714.91;5012685;28;20108;-63
2023/06/15 01:38:50;;;;;;;6.03;2.95;;;;;;;19.61;52.88;101721.03;5014306;28;20096;-64
2023/06/15 01:41:19;;;;;;;9.02;3.17;;;;;;;19.66;52.46;101718.19;5024777;28;20104;-63
2023/06/15 01:43:47;;;;;;;6.70;3.20;;;;;;;19.59;52.81;101719.38;5016308;28;20068;-66
2023/06/15 01:46:16;;;;;;;9.73;3.47;;;;;;;19.55;52.89;101718.38;5042930;28;20049;-64
2023/06/15 01:48:43;;;;;;;6.75;3.20;;;;;;;19.56;53.05;101717.25;5033886;28;20049;-63
2023/06/15 01:51:12;;;;;;;5.47;3.22;;;;;;;19.59;52.94;101724.91;5034537;28;20077;-64
2023/06/15 01:53:42;;;;;;;6.28;3.25;;;;;;;19.61;52.83;101721.03;5037023;28;20105;-64
2023/06/15 01:56:10;;;;;;;5.53;2.78;;;;;;;19.57;52.87;101716.09;5037035;28;20087;-63
2023/06/15 01:58:38;;;;;;;6.45;3.10;;;;;;;19.61;52.77;101721.84;5033471;28;20406;-63
2023/06/15 02:01:06;;;;;;;9.70;3.38;;;;;;;19.63;52.83;101719.59;5064957;28;20496;-64
2023/06/15 02:03:34;;;;;;;8.57;3.80;;;;;;;19.65;52.83;101722.88;5017937;28;20108;-65
2023/06/15 02:06:08;;;;;;;6.55;3.70;;;;;;;19.68;52.79;101722.31;5033153;28;20078;-65
2023/06/15 02:08:36;;;;;;;5.30;3.30;;;;;;;19.69;52.66;101714.81;5017904;28;20482;-64
2023/06/15 02:11:05;;;;;;;7.13;2.90;;;;;;;19.68;52.59;101719.53;5035991;28;20070;-65
2023/06/15 02:13:33;;;;;;;6.05;3.50;;;;;;;19.67;52.71;101717.03;5016258;28;20046;-65
2023/06/15 02:16:01;;;;;;;7.63;3.40;;;;;;;19.54;52.86;101711.19;5016715;28;20077;-64
2023/06/15 02:18:30;;;;;;;8.43;3.97;;;;;;;19.39;53.45;101713.47;5023506;28;20053;-64
2023/06/15 02:20:58;;;;;;;6.20;3.22;;;;;;;19.35;53.67;101718.78;5036125;28;20041;-63
2023/06/15 02:23:26;;;;;;;5.75;3.13;;;;;;;19.34;53.82;101719.91;5033399;28;20072;-65
2023/06/15 02:25:54;;;;;;;7.00;3.72;;;;;;;19.36;53.94;101728.69;5052999;28;20501;-64
2023/06/15 02:28:21;;;;;;;7.18;3.55;;;;;;;19.39;53.65;101725.34;5037760;28;20077;-64
2023/06/15 02:30:49;;;;;;;6.10;3.55;;;;;;;19.37;53.86;101722.88;5036093;28;20095;-63
2023/06/15 02:33:17;;;;;;;11.75;4.22;;;;;;;19.33;54.07;101726.53;5037301;28;20060;-65
2023/06/15 02:35:47;;;;;;;9.93;3.45;;;;;;;19.35;54.22;101729.81;5049089;28;20049;-62
2023/06/15 02:38:16;;;;;;;5.57;3.42;;;;;;;19.38;53.94;101729.22;5033768;28;20053;-63
2023/06/15 02:40:43;;;;;;;6.40;3.28;;;;;;;19.39;53.85;101730.03;5037125;28;20513;-63
2023/06/15 02:43:11;;;;;;;7.05;3.33;;;;;;;19.40;53.84;101732.50;5068705;28;20092;-63
2023/06/15 02:45:39;;;;;;;5.63;3.67;;;;;;;19.36;53.94;101731.44;5019542;28;20111;-63
2023/06/15 02:48:08;;;;;;;6.20;3.50;;;;;;;19.32;54.07;101735.97;5018051;28;20107;-64
2023/06/15 02:50:36;;;;;;;6.85;3.70;;;;;;;19.27;54.38;101736.88;5036427;28;20481;-64
2023/06/15 02:53:12;;;;;;;5.80;3.58;;;;;;;19.18;54.50;101741.47;5032884;28;20096;-63
2023/06/15 02:55:41;;;;;;;8.57;4.15;;;;;;;19.16;54.71;101739.00;5051999;28;20053;-63
2023/06/15 02:58:09;;;;;;;7.40;3.97;;;;;;;19.17;54.80;101739.84;5016096;28;20104;-63
2023/06/15 03:01:12;;;;;;;6.13;3.83;;;;;;;19.12;54.85;101737.97;5016576;28;20068;-62
2023/06/15 03:03:49;;;;;;;8.55;3.88;;;;;;;19.12;55.05;101743.50;5032382;28;20187;-62
2023/06/15 03:06:16;;;;;;;5.93;3.70;;;;;;;19.14;55.08;101735.72;5034215;28;20490;-65
2023/06/15 03:08:44;;;;;;;7.43;3.92;;;;;;;19.16;55.24;101736.22;5018769;28;20096;-63
2023/06/15 03:11:18;;;;;;;8.57;4.05;;;;;;;19.11;55.19;101736.31;5036308;28;20073;-65
2023/06/15 03:13:47;;;;;;;7.43;3.42;;;;;;;19.05;55.54;101743.09;5032591;28;20049;-66
2023/06/15 03:16:15;;;;;;;7.88;3.70;;;;;;;19.03;55.99;101738.97;5015279;28;20057;-63
2023/06/15 03:18:46;;;;;;;9.48;3.60;;;;;;;18.95;55.94;101743.22;5006762;28;20045;-63
2023/06/15 03:21:14;;;;;;;6.47;3.42;;;;;;;18.86;56.47;101742.31;5035156;28;20045;-65
2023/06/15 03:23:44;;;;;;;7.28;3.97;;;;;;;18.85;56.56;101743.41;5018704;28;20049;-63
2023/06/15 03:26:13;;;;;;;7.32;4.07;;;;;;;18.84;56.74;101747.31;5033394;28;20049;-65
2023/06/15 03:28:42;;;;;;;7.32;3.70;;;;;;;18.83;56.83;101745.66;5033781;28;20513;-65
2023/06/15 03:31:17;;;;;;;7.40;4.10;;;;;;;18.78;56.93;101746.56;5051598;28;20457;-65
2023/06/15 03:33:45;;;;;;;6.28;3.70;;;;;;;18.73;57.36;101747.41;5031335;28;20054;-63
2023/06/15 03:36:15;;;;;;;8.43;4.20;;;;;;;18.78;57.34;101751.25;5024040;28;20041;-64
2023/06/15 03:38:43;;;;;;;8.85;4.00;;;;;;;18.83;57.04;101743.72;5031749;28;20045;-63
2023/06/15 03:41:11;;;;;;;9.30;3.70;;;;;;;18.88;57.10;101745.56;5023353;28;20053;-61
2023/06/15 03:43:38;;;;;;;7.70;4.28;;;;;;;18.90;56.93;101746.09;5036193;28;20090;-62
2023/06/15 03:46:06;;;;;;;7.20;3.47;;;;;;;18.87;57.24;101743.94;5033457;28;20494;-63
2023/06/15 03:48:34;;;;;;;7.65;3.90;;;;;;;18.86;57.32;101740.34;5015463;28;20092;-62
2023/06/15 03:51:02;;;;;;;11.23;4.38;;;;;;;18.84;57.56;101739.03;5026653;28;20064;-59
2023/06/15 03:53:32;;;;;;;9.18;3.90;;;;;;;18.86;57.38;101743.13;5052445;28;20049;-60
2023/06/15 03:55:59;;;;;;;8.43;4.03;;;;;;;18.91;57.46;101747.75;5035268;28;20046;-59
2023/06/15 03:58:27;;;;;;;8.40;4.05;;;;;;;18.89;57.27;101744.47;5036810;28;20133;-63
2023/06/15 04:00:56;;;;;;;12.23;4.57;;;;;;;18.81;57.71;101739.59;5018283;28;20088;-63
2023/06/15 04:03:24;;;;;;;7.97;3.95;;;;;;;18.73;58.08;101744.66;5033655;28;20502;-63
2023/06/15 04:05:52;;;;;;;7.28;3.75;;;;;;;18.71;58.52;101755.22;5034209;28;20099;-63
2023/06/15 04:08:20;;;;;;;8.27;4.20;;;;;;;18.74;58.30;101760.13;5034815;28;20080;-63
2023/06/15 04:10:48;;;;;;;11.20;4.07;;;;;;;18.82;58.11;101755.06;5033580;28;20041;-63
2023/06/15 04:13:16;;;;;;;6.60;3.90;;;;;;;18.90;58.02;101754.38;5031930;28;20041;-63
2023/06/15 04:15:45;;;;;;;8.02;4.55;;;;;;;18.92;57.91;101752.13;5050496;28;20049;-61
2023/06/15 04:18:13;;;;;;;8.82;3.88;;;;;;;18.93;57.91;101751.03;5033538;28;20049;-63
2023/06/15 04:20:40;;;;;;;6.25;3.55;;;;;;;18.95;58.02;101754.28;5035407;28;20136;-62
2023/06/15 04:23:10;;;;;;;10.18;4.03;;;;;;;19.02;58.07;101756.66;5032201;28;20103;-64
2023/06/15 04:25:40;;;;;;;7.90;3.85;;;;;;;19.03;57.89;101761.91;5018185;28;20521;-64
2023/06/15 04:28:10;;;;;;;6.70;3.63;;;;;;;19.01;58.15;101760.56;5050276;28;20473;-63
2023/06/15 04:30:45;;;;;;;6.63;4.07;;;;;;;18.96;58.73;101755.13;5033510;28;20445;-64
2023/06/15 04:33:16;;;;;;;7.65;3.65;;;;;;;19.00;58.61;101762.50;5052929;28;20147;-64
2023/06/15 04:35:46;;;;;;;7.78;4.50;;;;;;;19.01;58.76;101753.09;5020694;28;20111;-63
2023/06/15 04:38:16;;;;;;;6.47;3.97;;;;;;;18.93;59.27;101767.59;5031072;28;20042;-64
2023/06/15 04:40:48;;;;;;;9.93;3.83;;;;;;;18.88;59.64;101764.88;5033609;28;20045;-62
2023/06/15 04:43:16;;;;;;;7.82;4.20;;;;;;;18.88;59.74;101764.88;5033016;28;20371;-67
2023/06/15 04:45:45;;;;;;;8.95;4.15;;;;;;;18.93;59.79;101767.59;5031854;28;20174;-64
2023/06/15 04:48:19;;;;;;;7.72;4.47;;;;;;;18.99;59.62;101771.91;5049233;28;20041;-64
2023/06/15 04:50:48;;;;;;;8.27;4.40;;;;;;;19.03;59.92;101780.41;5031206;28;20136;-65
2023/06/15 04:53:18;;;;;;;6.85;3.78;;;;;;;19.09;59.23;101771.72;5033657;28;20056;-65
2023/06/15 04:55:49;;;;;;;9.20;4.63;;;;;;;19.13;59.23;101772.75;5032691;28;20045;-64
2023/06/15 04:58:19;;;;;;;7.07;3.75;;;;;;;19.19;59.13;101775.44;5035599;28;20046;-63
2023/06/15 05:00:50;;;;;;;9.40;4.88;;;;;;;19.19;59.26;101780.97;5033095;28;20037;-63
2023/06/15 05:03:18;;;;;;;11.77;5.15;;;;;;;19.15;59.64;101784.34;5030867;28;20120;-65
2023/06/15 05:05:46;;;;;;;7.43;4.53;;;;;;;19.13;59.88;101783.81;5032112;28;20129;-65
2023/06/15 05:08:15;;;;;;;12.02;4.75;;;;;;;19.15;60.53;101781.56;5049393;28;20050;-65
2023/06/15 05:10:44;;;;;;;8.93;4.32;;;;;;;19.18;59.94;101782.09;5049607;28;20041;-66
2023/06/15 05:13:15;;;;;;;12.10;5.40;;;;;;;19.27;59.57;101791.34;5049509;28;20052;-66
2023/06/15 05:15:43;;;;;;;7.68;4.78;;;;;;;19.32;59.20;101792.06;4340105;28;10000208;-67
2023/06/15 05:18:13;;;;;;;9.77;4.47;;;;;;;19.38;58.98;101792.78;5029615;28;20405;-68
2023/06/15 05:20:41;;;;;;;14.65;5.88;;;;;;;19.40;59.10;101787.75;5013218;28;20053;-67
2023/06/15 05:23:09;;;;;;;11.07;5.28;;;;;;;19.37;59.47;101785.63;5028486;28;20053;-67
2023/06/15 05:25:38;;;;;;;12.48;4.80;;;;;;;19.37;59.44;101789.19;5012594;28;20061;-67
2023/06/15 05:28:06;;;;;;;10.32;5.03;;;;;;;19.40;59.02;101793.28;5034728;28;20652;-69
2023/06/15 05:30:37;;;;;;;11.32;4.70;;;;;;;19.44;59.14;101794.34;5047361;28;20057;-66
2023/06/15 05:33:04;;;;;;;13.35;5.72;;;;;;;19.47;58.85;101782.66;5045085;28;20053;-67
2023/06/15 05:35:32;;;;;;;12.30;5.68;;;;;;;19.50;59.08;101787.56;5029514;28;20694;-67
2023/06/15 05:38:00;;;;;;;10.15;5.55;;;;;;;19.55;58.68;101787.50;5029766;28;20489;-67
2023/06/15 05:40:29;;;;;;;8.25;4.82;;;;;;;19.61;58.69;101787.41;5027133;28;20084;-67
2023/06/15 05:42:57;;;;;;;9.55;4.70;;;;;;;19.64;58.65;101786.78;5030189;28;20099;-67
2023/06/15 05:45:25;;;;;;;8.93;5.28;;;;;;;19.69;58.63;101783.94;5028825;28;20382;-64
2023/06/15 05:47:54;;;;;;;16.38;5.78;;;;;;;19.70;58.22;101796.63;5028063;28;20067;-65
2023/06/15 05:50:22;;;;;;;13.00;5.65;;;;;;;19.72;58.00;101799.91;5022413;28;20038;-64
2023/06/15 05:52:50;;;;;;;12.02;6.68;;;;;;;19.70;58.56;101802.16;5010063;28;20045;-62
2023/06/15 05:55:18;;;;;;;11.90;5.05;;;;;;;19.71;58.41;101798.28;5040676;28;20573;-64
2023/06/15 05:57:46;;;;;;;11.13;6.03;;;;;;;19.74;58.35;101803.19;5011531;28;20057;-65
2023/06/15 06:00:15;;;;;;;10.65;6.35;;;;;;;19.77;58.49;101799.81;5026960;28;20087;-65
2023/06/15 06:02:43;;;;;;;14.45;5.72;;;;;;;19.81;58.32;101803.59;5023185;28;20058;-65
2023/06/15 06:05:23;;;;;;;14.70;6.90;;;;;;;19.87;57.73;101796.88;5009029;28;20477;-65
2023/06/15 06:07:51;;;;;;;9.00;4.90;;;;;;;19.91;57.79;101802.59;5027782;28;20103;-66
2023/06/15 06:10:19;;;;;;;10.57;4.95;;;;;;;19.98;57.73;101805.75;5045090;28;20117;-64
2023/06/15 06:12:54;;;;;;;9.15;4.93;;;;;;;20.02;57.24;101798.50;5029137;28;20092;-65
2023/06/15 06:15:22;;;;;;;11.88;5.55;;;;;;;20.10;57.26;101795.00;5032230;28;20092;-65
2023/06/15 06:17:50;;;;;;;10.48;6.50;;;;;;;20.12;57.19;101800.22;5032210;28;20133;-64
2023/06/15 06:20:36;;;;;;;15.20;5.20;;;;;;;20.14;57.01;101800.75;5031806;28;20080;-65
2023/06/15 06:23:04;;;;;;;9.07;5.82;;;;;;;20.15;57.10;101796.84;5048721;28;20459;-64
2023/06/15 06:25:32;;;;;;;10.93;5.68;;;;;;;20.17;57.12;101792.63;5031652;28;20049;-68
2023/06/15 06:28:02;;;;;;;10.35;5.68;;;;;;;20.21;56.95;101798.38;5048851;28;20042;-65
2023/06/15 06:30:29;;;;;;;16.65;6.53;;;;;;;20.25;57.07;101793.84;5032094;28;20486;-66
2023/06/15 06:32:57;;;;;;;30.85;9.75;;;;;;;20.31;57.02;101806.44;5033339;28;20051;-65
2023/06/15 06:35:28;;;;;;;16.45;7.97;;;;;;;20.32;57.21;101799.78;5033519;28;20120;-64
2023/06/15 06:37:57;;;;;;;14.00;6.25;;;;;;;20.35;56.78;101801.94;5030396;28;20092;-64
2023/06/15 06:40:28;;;;;;;15.27;6.70;;;;;;;20.38;56.64;101801.31;5016428;28;20064;-65
2023/06/15 06:42:56;;;;;;;13.60;7.10;;;;;;;20.40;56.83;101799.06;5016524;28;20371;-65
2023/06/15 06:45:24;;;;;;;20.60;6.95;;;;;;;20.40;56.75;101803.78;5017664;28;20058;-63
2023/06/15 06:47:56;;;;;;;14.82;5.95;;;;;;;20.41;56.58;101803.44;5017080;28;20060;-66
2023/06/15 06:50:25;;;;;;;18.50;6.70;;;;;;;20.42;56.40;101807.88;5036347;28;20042;-65
2023/06/15 06:52:53;;;;;;;18.75;6.07;;;;;;;20.45;56.37;101798.13;5037033;28;20116;-66
2023/06/15 06:55:21;;;;;;;16.63;6.53;;;;;;;20.47;56.35;101800.56;5041442;28;20050;-65
2023/06/15 06:57:48;;;;;;;11.75;5.65;;;;;;;20.49;56.27;101803.84;5036315;28;20061;-64
2023/06/15 07:00:16;;;;;;;11.57;6.32;;;;;;;20.52;56.10;101811.56;5036879;28;20124;-66
2023/06/15 07:02:44;;;;;;;14.18;6.93;;;;;;;20.55;56.27;101810.91;5033645;28;20561;-65
2023/06/15 07:05:12;;;;;;;11.55;6.43;;;;;;;20.58;56.06;101805.59;5036628;28;20071;-66
2023/06/15 07:07:39;;;;;;;12.60;6.03;;;;;;;20.61;55.68;101804.16;5035785;28;20265;-66
2023/06/15 07:10:07;;;;;;;18.08;7.07;;;;;;;20.64;55.42;101809.09;5035342;28;20085;-66
2023/06/15 07:12:35;;;;;;;15.13;6.55;;;;;;;20.66;55.15;101812.38;5030659;28;20069;-66
2023/06/15 07:15:03;;;;;;;18.02;6.18;;;;;;;20.69;55.01;101803.44;5048568;28;20045;-65
2023/06/15 07:17:32;;;;;;;13.20;6.55;;;;;;;20.73;55.30;101806.38;5054795;28;20045;-66
2023/06/15 07:20:00;;;;;;;11.55;5.90;;;;;;;20.77;55.16;101810.97;5050259;28;20045;-67
2023/06/15 07:22:28;;;;;;;17.38;6.22;;;;;;;20.79;54.73;101800.41;5033271;28;20125;-68
2023/06/15 07:24:56;;;;;;;16.38;6.45;;;;;;;20.81;54.51;101812.00;5036700;28;20421;-67
2023/06/15 07:27:23;;;;;;;13.65;6.53;;;;;;;20.84;54.29;101813.31;5026473;28;20042;-67
2023/06/15 07:29:51;;;;;;;12.93;6.80;;;;;;;20.87;54.21;101809.09;5015514;28;20044;-68
2023/06/15 07:32:19;;;;;;;12.05;5.88;;;;;;;20.91;53.55;101812.88;5025146;28;20057;-67
2023/06/15 07:34:47;;;;;;;13.65;5.38;;;;;;;20.93;53.48;101810.63;5036673;28;20057;-67
2023/06/15 07:37:14;;;;;;;11.98;5.40;;;;;;;20.96;53.11;101815.53;5036287;28;20049;-68
2023/06/15 07:39:42;;;;;;;15.75;7.00;;;;;;;21.08;53.55;101807.47;5032832;28;20124;-67
2023/06/15 07:42:10;;;;;;;11.20;6.20;;;;;;;21.14;53.24;101809.00;5016895;28;20490;-67
2023/06/15 07:44:38;;;;;;;10.10;5.43;;;;;;;21.15;52.96;101807.84;5033439;28;20069;-67
2023/06/15 07:47:07;;;;;;;13.23;6.40;;;;;;;21.17;52.87;101813.91;5035313;28;20049;-67
2023/06/15 07:49:35;;;;;;;15.75;7.03;;;;;;;21.21;52.48;101811.28;5014145;28;20049;-67
2023/06/15 07:52:13;;;;;;;15.35;6.20;;;;;;;21.23;52.43;101807.06;5033342;28;20073;-68
2023/06/15 07:54:41;;;;;;;16.60;6.68;;;;;;;21.24;52.31;101811.50;5036288;28;20055;-67
2023/06/15 07:57:09;;;;;;;9.65;4.63;;;;;;;21.25;51.32;101818.66;5036354;28;20045;-67
2023/06/15 07:59:37;;;;;;;12.25;5.13;;;;;;;21.29;50.34;101805.00;5037581;28;20041;-67
2023/06/15 08:02:05;;;;;;;12.60;4.28;;;;;;;21.34;49.76;101804.06;5058107;28;20054;-64
2023/06/15 08:04:33;;;;;;;7.68;4.60;;;;;;;21.36;48.10;101807.31;5057698;28;20049;-64
2023/06/15 08:07:00;;;;;;;9.77;4.63;;;;;;;21.38;48.51;101802.28;5050275;28;20096;-68
2023/06/15 08:09:30;;;;;;;9.30;4.38;;;;;;;21.39;49.04;101806.69;5051639;28;20050;-66
2023/06/15 08:11:58;;;;;;;9.40;4.88;;;;;;;21.42;49.14;101806.09;5032858;28;20096;-62
2023/06/15 08:14:25;;;;;;;6.55;4.25;;;;;;;21.47;47.46;101812.28;5053666;28;20045;-62
2023/06/15 08:16:53;;;;;;;8.40;4.20;;;;;;;21.51;47.22;101803.38;5054193;28;20040;-68
2023/06/15 08:19:21;;;;;;;9.60;4.40;;;;;;;21.56;46.87;101817.09;5038711;28;20124;-71
2023/06/15 08:21:49;;;;;;;10.27;4.47;;;;;;;21.60;45.91;101806.97;5035698;28;20120;-69
2023/06/15 08:24:16;;;;;;;7.20;4.20;;;;;;;21.61;45.99;101803.09;5036101;28;20116;-68
2023/06/15 08:26:44;;;;;;;10.13;4.97;;;;;;;21.65;46.03;101809.63;5017724;28;20053;-68
2023/06/15 08:29:12;;;;;;;8.85;4.53;;;;;;;21.69;45.79;101808.69;5032924;28;20042;-68
2023/06/15 08:31:51;;;;;;;9.90;4.35;;;;;;;21.75;46.05;101812.13;5033905;28;20095;-69
2023/06/15 08:34:19;;;;;;;11.57;4.40;;;;;;;21.82;45.90;101812.47;5036059;28;20045;-68
2023/06/15 08:36:49;;;;;;;11.98;4.50;;;;;;;21.86;45.07;101816.25;5025229;28;20453;-69
2023/06/15 08:39:17;;;;;;;9.55;4.32;;;;;;;21.98;44.33;101807.28;5014584;28;20046;-68
2023/06/15 08:41:46;;;;;;;10.63;3.90;;;;;;;22.07;43.74;101810.09;5052178;28;20572;-67
2023/06/15 08:44:16;;;;;;;10.95;4.88;;;;;;;22.12;43.18;101810.75;5018948;28;20050;-67
2023/06/15 08:46:43;;;;;;;11.18;3.85;;;;;;;22.14;42.91;101802.13;5030526;28;20105;-70
2023/06/15 08:49:12;;;;;;;15.57;4.60;;;;;;;22.17;42.83;101801.47;5044834;28;20049;-68
2023/06/15 08:51:40;;;;;;;7.70;3.85;;;;;;;22.18;43.11;101796.75;5016781;28;20049;-68
2023/06/15 08:54:09;;;;;;;11.73;4.57;;;;;;;22.25;43.08;101800.72;5032087;28;20099;-68
2023/06/15 08:56:38;;;;;;;9.57;4.47;;;;;;;22.35;42.50;101799.59;5017543;28;20049;-69
2023/06/15 08:59:07;;;;;;;12.63;4.75;;;;;;;22.44;43.20;101803.22;5034547;28;20120;-69
2023/06/15 09:01:39;;;;;;;16.05;4.60;;;;;;;22.57;41.29;101797.81;5004810;28;20054;-68
2023/06/15 09:04:08;;;;;;;15.65;4.50;;;;;;;22.59;41.50;101790.78;5020628;28;20469;-68
2023/06/15 09:06:36;;;;;;;12.52;4.47;;;;;;;22.61;41.35;101798.78;5026860;28;20057;-68
2023/06/15 09:09:04;;;;;;;9.30;4.07;;;;;;;22.57;41.43;101795.03;5033908;28;20045;-67
2023/06/15 09:11:40;;;;;;;29.13;5.88;;;;;;;22.65;41.00;101795.03;5030916;28;20065;-68
2023/06/15 09:14:11;;;;;;;16.07;4.80;;;;;;;22.70;40.90;101791.28;5010735;28;20124;-68
2023/06/15 09:16:40;;;;;;;16.13;4.20;;;;;;;22.74;40.57;101790.28;5016709;28;20049;-68
2023/06/15 09:19:11;;;;;;;18.60;4.30;;;;;;;22.71;40.42;101792.94;5032554;28;20100;-69
2023/06/15 09:21:52;;;;;;;12.43;3.92;;;;;;;22.72;39.44;101791.75;5015131;28;20073;-68
2023/06/15 09:24:24;;;;;;;55.67;7.32;;;;;;;22.80;39.12;101782.63;5021820;28;20132;-69
2023/06/15 09:26:52;;;;;;;19.88;5.22;;;;;;;22.83;39.56;101787.53;5033780;28;20402;-70
2023/06/15 09:29:20;;;;;;;11.50;4.30;;;;;;;22.88;39.87;101786.53;5064714;28;20137;-68
2023/06/15 09:31:47;;;;;;;15.82;4.25;;;;;;;22.91;40.00;101786.69;5034131;28;20107;-68
2023/06/15 09:34:15;;;;;;;11.50;4.05;;;;;;;22.95;40.63;101784.88;5033378;28;20045;-67
2023/06/15 09:36:48;;;;;;;8.52;3.85;;;;;;;23.06;40.09;101784.56;5033212;28;20461;-67
2023/06/15 09:39:25;;;;;;;7.68;3.83;;;;;;;23.10;39.31;101788.34;5034106;28;20057;-67
2023/06/15 09:41:57;;;;;;;9.45;3.80;;;;;;;23.12;38.90;101783.28;5015345;28;20069;-69
2023/06/15 09:44:26;;;;;;;11.80;3.97;;;;;;;23.12;39.26;101783.28;5014469;28;20084;-68
2023/06/15 09:46:58;;;;;;;7.85;3.95;;;;;;;23.09;39.61;101778.34;5034253;28;20050;-68
2023/06/15 09:49:29;;;;;;;9.73;4.53;;;;;;;23.12;38.74;101780.50;5031887;28;20043;-68
2023/06/15 09:51:57;;;;;;;8.23;3.83;;;;;;;23.29;38.54;101786.00;5033893;28;20115;-69
2023/06/15 09:54:29;;;;;;;10.80;4.32;;;;;;;23.49;37.65;101781.69;5031749;28;20049;-67
2023/06/15 09:56:57;;;;;;;8.55;4.22;;;;;;;23.51;36.98;101784.13;5033682;28;20188;-67
2023/06/15 09:59:25;;;;;;;8.43;4.15;;;;;;;23.39;38.00;101787.59;5030446;28;20056;-68
2023/06/15 10:01:56;;;;;;;13.70;3.90;;;;;;;23.28;38.90;101786.31;5033561;28;20046;-68
2023/06/15 10:04:32;;;;;;;10.95;4.22;;;;;;;23.18;39.29;101784.72;5031743;28;20132;-68
2023/06/15 10:07:03;;;;;;;13.18;4.13;;;;;;;23.15;39.34;101782.59;5030590;28;20490;-67
2023/06/15 10:09:41;;;;;;;8.32;3.85;;;;;;;23.23;39.91;101789.28;5033400;28;20073;-68
2023/06/15 10:12:17;;;;;;;9.85;4.22;;;;;;;23.30;39.61;101789.59;5017539;28;20125;-68
2023/06/15 10:14:56;;;;;;;10.68;4.20;;;;;;;23.31;39.41;101792.06;5036180;28;20386;-68
2023/06/15 10:17:32;;;;;;;10.35;4.22;;;;;;;23.26;39.25;101797.78;5037131;28;20477;-68
2023/06/15 10:20:07;;;;;;;10.60;4.20;;;;;;;23.19;38.64;101789.13;5020613;28;20045;-68
2023/06/15 10:22:45;;;;;;;7.67;3.77;;;;;;;23.10;38.71;101780.81;5037223;28;20095;-68
2023/06/15 10:25:14;;;;;;;13.25;5.00;;;;;;;23.10;39.08;101777.22;5035405;28;20494;-68
2023/06/15 10:27:44;;;;;;;11.40;3.88;;;;;;;23.14;38.10;101781.78;5037259;28;20046;-68
2023/06/15 10:30:27;;;;;;;11.02;4.13;;;;;;;23.23;37.56;101784.53;5035315;28;20100;-68
2023/06/15 10:33:00;;;;;;;10.32;4.20;;;;;;;23.24;37.08;101786.19;5037590;28;20132;-68
2023/06/15 10:35:40;;;;;;;9.13;4.00;;;;;;;23.24;35.86;101785.38;5033941;28;20045;-67
2023/06/15 10:38:36;;;;;;;10.30;4.60;;;;;;;23.33;36.14;101780.56;5034987;28;20409;-68
2023/06/15 10:41:06;;;;;;;20.85;4.13;;;;;;;23.43;36.25;101779.41;5034721;28;20041;-67
2023/06/15 10:43:33;;;;;;;10.80;4.15;;;;;;;23.49;36.16;101783.66;5037317;28;20045;-68
2023/06/15 10:46:04;;;;;;;9.13;4.15;;;;;;;23.59;35.60;101780.50;5035773;28;20501;-67
2023/06/15 10:48:31;;;;;;;9.15;3.80;;;;;;;23.67;35.79;101785.22;5035423;28;20049;-67
2023/06/15 10:51:06;;;;;;;7.50;4.13;;;;;;;23.74;35.78;101782.78;5034141;28;20057;-68
2023/06/15 10:53:40;;;;;;;10.77;3.88;;;;;;;23.78;35.86;101780.94;5019352;28;20382;-67
2023/06/15 10:56:16;;;;;;;9.32;4.25;;;;;;;23.79;35.64;101777.00;5034878;28;20494;-67
2023/06/15 10:58:58;;;;;;;10.13;4.30;;;;;;;23.81;35.94;101769.16;5034940;28;20056;-68
2023/06/15 11:01:33;;;;;;;8.55;4.18;;;;;;;23.87;36.74;101768.94;5037040;28;20045;-68
2023/06/15 11:04:22;;;;;;;10.63;4.72;;;;;;;23.90;35.96;101773.84;5035483;28;20486;-67
2023/06/15 11:06:58;;;;;;;9.15;4.00;;;;;;;23.98;35.95;101775.75;5034230;28;20091;-68
2023/06/15 11:09:33;;;;;;;8.45;4.15;;;;;;;23.91;35.68;101769.88;5020427;28;20056;-67
2023/06/15 11:12:01;;;;;;;11.85;3.92;;;;;;;23.88;35.77;101771.38;5035230;28;20045;-67
2023/06/15 11:14:32;;;;;;;11.38;4.70;;;;;;;23.93;35.97;101774.00;5066257;28;20041;-67
2023/06/15 11:17:04;;;;;;;9.30;3.45;;;;;;;24.00;35.75;101768.72;5035727;28;20433;-67
2023/06/15 11:19:41;;;;;;;8.95;4.15;;;;;;;24.13;35.43;101766.81;5034706;28;20037;-68
2023/06/15 11:22:11;;;;;;;9.68;4.28;;;;;;;24.16;35.19;101765.34;5035124;28;20064;-67
2023/06/15 11:24:41;;;;;;;9.07;4.05;;;;;;;24.13;35.24;101769.63;5032605;28;20404;-65
2023/06/15 11:27:11;;;;;;;14.65;4.40;;;;;;;24.10;35.62;101767.50;5034825;28;20121;-67
2023/06/15 11:29:40;;;;;;;11.02;4.68;;;;;;;24.09;35.61;101765.88;5018772;28;20068;-66
2023/06/15 11:32:09;;;;;;;9.55;3.85;;;;;;;24.03;36.18;101767.22;5018700;28;20045;-67
2023/06/15 11:34:38;;;;;;;11.02;3.90;;;;;;;23.98;36.78;101764.59;5030625;28;20072;-70